AirNav   MODERNIZE NOT PRIVATIZE ATC
 
 1025 users online  

CL07 Queen Mary Heliport
Long Beach, California, USA

GOING TO LONG BEACH?


FAA INFORMATION EFFECTIVE 20 JULY 2017

Location

FAA Identifier: CL07
Lat/Long: 33-44-56.8400N / 118-11-24.5200W
33-44.947333N / 118-11.408667W
33.7491222 / -118.1901444
(estimated)
Elevation: 14 ft. / 4 m (estimated)
Variation: 13E (1995)
From city: 1 mile S of LONG BEACH, CA
Time zone: UTC -7 (UTC -8 during Standard Time)
Zip code: 90802

Heliport Operations

Heliport use: Private use. Permission required prior to landing
Activation date: 09/1999
Control tower: no
ARTCC: LOS ANGELES CENTER
FSS: HAWTHORNE FLIGHT SERVICE STATION
Attendance: 0700-1900
Wind indicator: yes
Segmented circle: no

Heliport Communications

WX ASOS at LGB (5 nm NE): PHONE 562-424-0572
WX AWOS-3PT at CPM (9 nm N): 127.150 (310-631-4958)
WX ASOS at HHR (13 nm NW): PHONE 310-973-8930
WX ASOS at FUL (13 nm NE): PHONE 714-870-1372
WX ASOS at LAX (16 nm NW): PHONE 310-568-1486
WX ASOS at SNA (17 nm E): PHONE 714-424-0590

Nearby radio navigation aids

VOR radial/distance  VOR name  Freq  Var
SLIr238/7.1SEAL BEACH VORTAC115.7015E
LAXr117/16.3LOS ANGELES VORTAC113.6015E
SMOr125/20.5SANTA MONICA VOR/DME110.8015E
ELBr267/23.3EL TORO VOR/DME117.2014E
SXCr012/25.2SANTA CATALINA VORTAC111.4015E
POMr210/28.2POMONA VORTAC110.4015E
VNYr137/32.2VAN NUYS VOR/DME113.1015E
PDZr238/34.4PARADISE VORTAC112.2015E
RALr237/(38.9)RIVERSIDE VOR112.4014E

 
NDB name  Hdg/Dist  Freq  Var  ID
BECCA251/5.623314ELG .-.. --.
EL MONTE186/21.835915EEMT . -- -
PACOIMA145/32.637015EPAI .--. .- ..

Heliport Services

Fuel available: A

Runway Information

Helipad H1

Dimensions: 80 x 80 ft. / 24 x 24 m
Surface: asphalt
Operational restrictions: CIRCULAR HELIPAD.
Latitude: 33-44.947333N
Longitude: 118-11.408667W
Elevation: 14.0 ft.
Traffic pattern: leftleft

Helipad H2

Dimensions: 60 x 60 ft. / 18 x 18 m
Surface: asphalt/concrete
Latitude: 33-44.932167N
Longitude: 118-11.401000W
Elevation: 14.0 ft.
Traffic pattern: leftleft

Heliport Ownership and Management from official FAA records

Ownership: Privately-owned
Manager: ISLAND EXPRESS HELICOPTERS`
1175 QUEENS HWY SOUTH
LONG BEACH, CA 90802
Phone 310-510-2525

Heliport Operational Statistics

Aircraft based on the field: 3
Helicopters: 3
    

Instrument Procedures

There are no published instrument procedures at CL07.

Some nearby airports with instrument procedures:

KLGB - Long Beach Airport (Daugherty Field) (5 nm NE)
KSLI - Los Alamitos Army Airfield (7 nm E)
KTOA - Zamperini Field Airport (8 nm NW)
KHHR - Jack Northrop Field/Hawthorne Municipal Airport (13 nm NW)
KFUL - Fullerton Municipal Airport (13 nm NE)
KLAX - Los Angeles International Airport (16 nm NW)
KSNA - John Wayne-Orange County Airport (17 nm E)
 
Loc | Ops | Rwys | IFR | FBO | Links
Com | Nav | Svcs | Stats | Notes


 
Area around CL07 (Queen Mary Heliport)
 
Road maps at: MapQuest Bing Google
 
Aerial photo
WARNING: Photo may not be current or correct
Aerial photo of CL07 (Queen Mary Heliport)
Do you have a better or more recent aerial photo of Queen Mary Heliport that you would like to share? If so, please send us your photo.

 
Sectional chart

 
Airport distance calculator
Flying to Queen Mary Heliport? Find the distance to fly.

From to CL07

Sunrise and sunset
Times for 25-Jul-2017
 Local
(UTC-7)
 Zulu
(UTC)
Morning civil twilight05:3312:33
Sunrise06:0113:01
Sunset19:5802:58
Evening civil twilight20:2503:25

Current date and time
Zulu (UTC)  26-Jul-2017 00:37:38
Local (UTC-7)  25-Jul-2017 17:37:38
 
METAR
KLGB 
5nm NE 
252353Z 30010KT 10SM CLR 27/17 A2994 RMK AO2 SLP137 T02670172 10283 20239 56009
KTOA 
7nm W 
252352Z 30019KT 10SM FEW160 22/17 A2994
KSLI 
8nm E 
252358Z 22012KT 10SM FEW130 25/17 A2994 RMK AO2A SLP141 T02540174 10270 20244 57008
KHHR 
12nm NW 
252353Z 25012KT 10SM CLR 24/17 A2996 RMK AO2 SLP143 T02390172 10256 20233 58006
KFUL 
12nm NE 
252353Z 20008KT 10SM CLR 27/18 A2993 RMK AO2 SLP133 T02720178 10294 20250 58007
KLAX 
15nm NW 
252353Z 26015KT 10SM FEW015 FEW100 23/18 A2996 RMK AO2 SLP142 T02280178 10250 20228 57007
KSNA 
17nm E 
252353Z 22010KT 10SM FEW020 SCT090 SCT110 24/17 A2995 RMK AO2 SLP141 T02440172 10267 20233 56006
KCQT 
18nm N 
252347Z AUTO VRB05KT 10SM CLR 26/17 A2994 RMK AO2 SLP137 T02560167 10278 20250 58004
TAF
KLGB 
5nm NE 
251121Z 2512/2612 VRB03KT P6SM BKN015 FM251800 19008KT P6SM SCT150 FM260100 30008KT P6SM SCT150 FM260500 VRB03KT P6SM SCT150 FM260700 VRB03KT P6SM OVC008
KSLI 
8nm E 
252103Z 2521/2703 26009KT 9999 SCT100 QNH2990INS BECMG 2603/2604 VRB06KT 9999 FEW010 QNH2993INS BECMG 2606/2607 VRB06KT 9999 BKN010 QNH2996INS BECMG 2614/2615 26006KT 9999 FEW015 QNH2991INS TX26/2521Z TN18/2612Z
KLAX 
15nm NW 
252036Z 2521/2624 26010KT P6SM FEW020 SCT160 FM260300 VRB03KT P6SM SKC FM260600 VRB03KT P6SM OVC010 FM261700 23006KT P6SM SCT015 FM262000 26012KT P6SM SKC
KSNA 
17nm E 
251120Z 2512/2612 VRB04KT P6SM BKN018 TEMPO 2512/2514 SCT018 FM251700 VRB05KT P6SM SCT020 SCT150 FM251900 22008KT P6SM SCT150 FM260200 VRB05KT P6SM SCT018 FM260500 VRB04KT P6SM BKN015
NOTAMs
Click for the latest NOTAMs
NOTAMs are issued by the DoD/FAA and will open in a separate window not controlled by AirNav.

 

 
 

Would you like to see your business listed on this page?

 If your business provides an interesting product or service to pilots, flight crews, aircraft, or users of the Queen Mary Heliport, you should consider listing it here.  To start the listing process, click on the button below
 
Add a business
 

Other Pages about Queen Mary Heliport

Update a link
 
Copyright © AirNav, LLC. All rights reserved. Privacy Policy  Contact